Time;durP1;ratioP1;P1;durP2;ratioP2;P2;SDS_P1;SDS_P2;PMS_P1;PMS_P2;Temp;Humidity;BMP_temperature;BMP_pressure;BME280_temperature;BME280_humidity;BME280_pressure;Samples;Min_cycle;Max_cycle;Signal;HPM_P1;HPM_P2
2022/09/18 00:00:37;;;;;;;0.80;0.80;;;;;;;;;;4980528;28;20031;-61
2022/09/18 00:03:03;;;;;;;1.20;1.10;;;;;;;;;;4974628;28;20072;-61
2022/09/18 00:05:28;;;;;;;2.75;1.55;;;;;;;;;;4972467;28;20031;-63
2022/09/18 00:07:53;;;;;;;1.05;0.98;;;;;;;;;;4973806;28;20031;-62
2022/09/18 00:10:18;;;;;;;0.98;0.93;;;;;;;;;;4972891;28;20052;-63
2022/09/18 00:12:44;;;;;;;1.35;1.25;;;;;;;;;;4972963;28;20031;-62
2022/09/18 00:15:09;;;;;;;1.63;0.95;;;;;;;;;;4974538;28;20035;-62
2022/09/18 00:17:34;;;;;;;2.03;1.20;;;;;;;;;;4972924;28;20041;-63
2022/09/18 00:20:01;;;;;;;0.93;0.93;;;;;;;;;;4969787;28;20117;-63
2022/09/18 00:22:26;;;;;;;3.20;1.15;;;;;;;;;;4969931;28;20460;-62
2022/09/18 00:24:51;;;;;;;3.28;1.15;;;;;;;;;;4974327;28;20027;-62
2022/09/18 00:27:17;;;;;;;1.83;1.10;;;;;;;;;;4974735;28;20034;-63
2022/09/18 00:29:43;;;;;;;1.25;1.15;;;;;;;;;;4973985;28;20015;-62
2022/09/18 00:32:08;;;;;;;1.67;0.90;;;;;;;;;;4976181;28;20062;-62
2022/09/18 00:34:33;;;;;;;1.60;0.85;;;;;;;;;;4975427;28;20789;-61
2022/09/18 00:36:59;;;;;;;1.45;1.10;;;;;;;;;;4973716;28;20031;-62
2022/09/18 00:39:24;;;;;;;1.88;1.38;;;;;;;;;;4974089;28;20551;-62
2022/09/18 00:41:50;;;;;;;1.10;1.10;;;;;;;;;;4974960;28;20085;-62
2022/09/18 00:44:34;;;;;;;2.92;1.10;;;;;;;;;;4974231;28;20027;-62
2022/09/18 00:47:05;;;;;;;1.25;1.25;;;;;;;;;;4973970;28;20030;-61
2022/09/18 00:49:30;;;;;;;1.55;1.08;;;;;;;;;;4972728;28;20408;-61
2022/09/18 00:51:57;;;;;;;0.95;0.95;;;;;;;;;;4969183;28;20034;-61
2022/09/18 00:54:24;;;;;;;1.65;0.93;;;;;;;;;;4970635;28;20089;-61
2022/09/18 00:56:51;;;;;;;2.30;1.10;;;;;;;;;;4974294;28;20022;-61
2022/09/18 00:59:22;;;;;;;1.00;1.00;;;;;;;;;;4974454;28;20022;-61
2022/09/18 01:01:48;;;;;;;1.10;1.10;;;;;;;;;;4973342;28;20027;-61
2022/09/18 01:04:13;;;;;;;1.13;1.00;;;;;;;;;;4973528;28;20034;-62
2022/09/18 01:06:45;;;;;;;1.25;1.08;;;;;;;;;;4972112;28;20030;-61
2022/09/18 01:09:22;;;;;;;1.10;1.00;;;;;;;;;;4973789;28;20023;-61
2022/09/18 01:11:54;;;;;;;3.15;0.90;;;;;;;;;;4971675;28;20030;-62
2022/09/18 01:14:33;;;;;;;1.15;1.00;;;;;;;;;;4975088;28;20022;-64
2022/09/18 01:17:08;;;;;;;0.80;0.80;;;;;;;;;;4970250;28;20030;-62
2022/09/18 01:19:52;;;;;;;0.80;0.80;;;;;;;;;;4967945;28;20886;-62
2022/09/18 01:22:21;;;;;;;1.00;0.98;;;;;;;;;;4972836;28;20042;-63
2022/09/18 01:24:59;;;;;;;0.70;0.70;;;;;;;;;;4971883;28;20062;-60
2022/09/18 01:27:48;;;;;;;0.90;0.90;;;;;;;;;;4972786;28;20022;-62
2022/09/18 01:30:14;;;;;;;0.80;0.80;;;;;;;;;;4969471;28;20047;-62
2022/09/18 01:33:03;;;;;;;1.05;0.95;;;;;;;;;;4971477;28;20032;-61
2022/09/18 01:35:35;;;;;;;1.35;0.98;;;;;;;;;;4972798;28;20037;-61
2022/09/18 01:38:09;;;;;;;1.00;1.00;;;;;;;;;;4971845;28;20022;-62
2022/09/18 01:40:57;;;;;;;1.10;0.88;;;;;;;;;;4973280;28;20461;-63
2022/09/18 01:43:24;;;;;;;1.00;1.00;;;;;;;;;;4973275;28;20485;-63
2022/09/18 01:45:52;;;;;;;0.90;0.90;;;;;;;;;;4972771;28;20649;-63
2022/09/18 01:48:23;;;;;;;0.90;0.90;;;;;;;;;;4972552;28;20027;-62
2022/09/18 01:50:52;;;;;;;1.17;1.17;;;;;;;;;;4973190;28;20149;-62
2022/09/18 01:53:20;;;;;;;1.15;1.05;;;;;;;;;;4974464;28;20038;-62
2022/09/18 01:55:47;;;;;;;1.15;1.15;;;;;;;;;;4973068;28;20060;-62
2022/09/18 01:58:18;;;;;;;3.58;1.05;;;;;;;;;;4968338;28;20041;-61
2022/09/18 02:00:47;;;;;;;1.10;0.98;;;;;;;;;;4970450;28;20030;-64
2022/09/18 02:03:14;;;;;;;1.13;1.10;;;;;;;;;;4971252;28;20036;-61
2022/09/18 02:06:01;;;;;;;1.70;1.40;;;;;;;;;;4973405;28;20094;-61
2022/09/18 02:08:30;;;;;;;1.23;1.17;;;;;;;;;;4969840;28;20226;-61
2022/09/18 02:11:01;;;;;;;1.40;1.30;;;;;;;;;;4969489;28;20045;-61
2022/09/18 02:13:29;;;;;;;1.65;1.17;;;;;;;;;;4972644;28;20041;-61
2022/09/18 02:16:00;;;;;;;1.10;1.10;;;;;;;;;;4973303;28;20492;-60
2022/09/18 02:18:31;;;;;;;2.25;1.65;;;;;;;;;;4971673;28;20038;-60
2022/09/18 02:20:57;;;;;;;0.98;0.98;;;;;;;;;;4971034;28;20114;-60
2022/09/18 02:23:22;;;;;;;2.60;2.17;;;;;;;;;;4972339;28;20031;-61
2022/09/18 02:25:56;;;;;;;1.27;1.17;;;;;;;;;;4969974;28;20026;-61
2022/09/18 02:28:22;;;;;;;1.17;1.08;;;;;;;;;;4972399;28;20029;-61
2022/09/18 02:30:48;;;;;;;1.33;1.30;;;;;;;;;;4976546;28;20417;-60
2022/09/18 02:33:22;;;;;;;1.93;1.33;;;;;;;;;;4976371;28;20029;-60
2022/09/18 02:35:52;;;;;;;2.17;1.27;;;;;;;;;;4974576;28;20475;-60
2022/09/18 02:38:40;;;;;;;0.93;0.93;;;;;;;;;;4976457;28;20034;-60
2022/09/18 02:41:17;;;;;;;2.40;1.03;;;;;;;;;;4975666;28;20137;-62
2022/09/18 02:43:42;;;;;;;0.90;0.90;;;;;;;;;;4976001;28;20039;-62
2022/09/18 02:46:16;;;;;;;0.82;0.82;;;;;;;;;;4975658;28;20362;-60
2022/09/18 02:48:42;;;;;;;2.47;1.60;;;;;;;;;;4975190;28;20110;-60
2022/09/18 02:51:11;;;;;;;1.08;1.02;;;;;;;;;;4976607;28;20102;-62
2022/09/18 02:53:44;;;;;;;1.10;1.10;;;;;;;;;;4976270;28;20027;-61
2022/09/18 02:56:27;;;;;;;1.42;0.88;;;;;;;;;;4976606;28;20030;-61
2022/09/18 02:59:12;;;;;;;0.60;0.60;;;;;;;;;;4975046;28;20031;-60
2022/09/18 03:01:40;;;;;;;0.95;0.95;;;;;;;;;;4975562;28;20478;-62
2022/09/18 03:04:09;;;;;;;0.75;0.70;;;;;;;;;;4974965;28;20054;-60
2022/09/18 03:06:35;;;;;;;0.90;0.90;;;;;;;;;;4976241;28;20041;-60
2022/09/18 03:09:00;;;;;;;0.73;0.73;;;;;;;;;;4975165;28;20026;-63
2022/09/18 03:11:25;;;;;;;1.30;0.80;;;;;;;;;;4974643;28;20026;-62
2022/09/18 03:13:50;;;;;;;1.83;0.80;;;;;;;;;;4971152;28;20745;-62
2022/09/18 03:16:16;;;;;;;1.27;0.80;;;;;;;;;;4970450;28;20213;-62
2022/09/18 03:18:41;;;;;;;1.95;0.90;;;;;;;;;;4974824;28;20054;-62
2022/09/18 03:21:06;;;;;;;0.75;0.75;;;;;;;;;;4974724;28;20035;-62
2022/09/18 03:23:31;;;;;;;1.58;0.80;;;;;;;;;;4975185;28;20121;-60
2022/09/18 03:25:56;;;;;;;1.05;0.90;;;;;;;;;;4969211;28;20462;-62
2022/09/18 03:28:22;;;;;;;0.88;0.88;;;;;;;;;;4971826;28;20054;-63
2022/09/18 03:30:48;;;;;;;1.08;0.90;;;;;;;;;;4975804;28;20146;-62
2022/09/18 03:33:14;;;;;;;1.75;0.73;;;;;;;;;;4975295;28;20050;-61
2022/09/18 03:35:39;;;;;;;2.70;0.70;;;;;;;;;;4974189;28;20035;-63
2022/09/18 03:38:04;;;;;;;1.50;0.90;;;;;;;;;;4975927;28;20073;-61
2022/09/18 03:40:29;;;;;;;0.73;0.73;;;;;;;;;;4975250;28;20030;-61
2022/09/18 03:42:55;;;;;;;1.45;0.93;;;;;;;;;;4973765;28;20101;-63
2022/09/18 03:45:20;;;;;;;1.05;0.80;;;;;;;;;;4975441;28;20030;-61
2022/09/18 03:47:45;;;;;;;2.17;0.90;;;;;;;;;;4974249;28;20030;-63
2022/09/18 03:50:11;;;;;;;0.80;0.80;;;;;;;;;;4975075;28;20041;-61
2022/09/18 03:52:36;;;;;;;1.20;0.68;;;;;;;;;;4976009;28;20121;-61
2022/09/18 03:55:01;;;;;;;1.70;0.80;;;;;;;;;;4976568;28;20027;-62
2022/09/18 03:57:26;;;;;;;1.42;1.00;;;;;;;;;;4974147;28;20110;-62
2022/09/18 03:59:52;;;;;;;1.30;1.17;;;;;;;;;;4976790;28;20026;-62
2022/09/18 04:02:17;;;;;;;2.17;0.93;;;;;;;;;;4974032;28;20035;-61
2022/09/18 04:04:42;;;;;;;0.75;0.75;;;;;;;;;;4975808;28;20023;-62
2022/09/18 04:07:07;;;;;;;0.70;0.70;;;;;;;;;;4975305;28;20092;-62
2022/09/18 04:09:33;;;;;;;0.85;0.85;;;;;;;;;;4974132;28;20386;-62
2022/09/18 04:11:58;;;;;;;3.22;0.95;;;;;;;;;;4973589;28;20035;-61
2022/09/18 04:14:24;;;;;;;1.08;0.70;;;;;;;;;;4975058;28;20031;-62
2022/09/18 04:16:49;;;;;;;1.15;0.68;;;;;;;;;;4972895;28;20034;-62
2022/09/18 04:19:14;;;;;;;0.75;0.75;;;;;;;;;;4973731;28;20039;-63
2022/09/18 04:21:39;;;;;;;2.47;1.20;;;;;;;;;;4972300;28;20038;-62
2022/09/18 04:24:05;;;;;;;6.40;0.88;;;;;;;;;;4974762;28;20043;-62
2022/09/18 04:26:32;;;;;;;1.08;1.00;;;;;;;;;;4974876;28;20031;-62
2022/09/18 04:28:58;;;;;;;0.70;0.68;;;;;;;;;;4974764;28;20721;-62
2022/09/18 04:31:23;;;;;;;1.85;0.85;;;;;;;;;;4974532;28;20173;-63
2022/09/18 04:33:49;;;;;;;0.80;0.77;;;;;;;;;;4973411;28;20050;-62
2022/09/18 04:36:14;;;;;;;1.35;0.70;;;;;;;;;;4974649;28;20049;-63
2022/09/18 04:38:39;;;;;;;1.58;0.80;;;;;;;;;;4973248;28;20037;-63
2022/09/18 04:41:04;;;;;;;0.88;0.75;;;;;;;;;;4974943;28;20525;-64
2022/09/18 04:43:30;;;;;;;1.38;0.88;;;;;;;;;;4973533;28;20038;-62
2022/09/18 04:45:55;;;;;;;1.55;0.90;;;;;;;;;;4972904;28;20038;-63
2022/09/18 04:48:20;;;;;;;1.00;1.00;;;;;;;;;;4969086;28;20038;-63
2022/09/18 04:50:46;;;;;;;1.33;0.65;;;;;;;;;;4971401;28;20027;-66
2022/09/18 04:53:12;;;;;;;0.90;0.70;;;;;;;;;;4973100;28;20042;-63
2022/09/18 04:55:38;;;;;;;0.80;0.80;;;;;;;;;;4973762;28;20030;-63
2022/09/18 04:58:04;;;;;;;1.55;0.93;;;;;;;;;;4971601;28;20056;-63
2022/09/18 05:00:29;;;;;;;1.67;1.42;;;;;;;;;;4968916;28;20030;-63
2022/09/18 05:02:54;;;;;;;0.60;0.60;;;;;;;;;;4972523;28;20046;-63
2022/09/18 05:05:19;;;;;;;0.85;0.80;;;;;;;;;;4973444;28;20118;-63
2022/09/18 05:07:45;;;;;;;1.05;0.95;;;;;;;;;;4973282;28;20101;-62
2022/09/18 05:10:10;;;;;;;1.80;0.82;;;;;;;;;;4972717;28;20110;-65
2022/09/18 05:12:38;;;;;;;0.98;0.98;;;;;;;;;;4973647;28;20082;-65
2022/09/18 05:15:04;;;;;;;3.10;1.00;;;;;;;;;;4973309;28;20023;-65
2022/09/18 05:17:31;;;;;;;2.35;2.25;;;;;;;;;;4973270;28;20046;-65
2022/09/18 05:19:56;;;;;;;2.75;0.90;;;;;;;;;;4973659;28;20022;-67
2022/09/18 05:22:22;;;;;;;1.20;0.70;;;;;;;;;;4972251;28;20038;-64
2022/09/18 05:24:47;;;;;;;1.08;1.02;;;;;;;;;;4972514;28;20030;-63
2022/09/18 05:27:12;;;;;;;3.05;1.25;;;;;;;;;;4973499;28;20027;-60
2022/09/18 05:29:37;;;;;;;1.65;0.80;;;;;;;;;;4969853;28;20431;-68
2022/09/18 05:32:03;;;;;;;3.28;0.88;;;;;;;;;;4970202;28;20501;-68
2022/09/18 05:34:28;;;;;;;2.33;1.45;;;;;;;;;;4971323;28;20042;-68
2022/09/18 05:36:53;;;;;;;0.73;0.73;;;;;;;;;;4971609;28;20105;-67
2022/09/18 05:39:18;;;;;;;0.80;0.80;;;;;;;;;;4972026;28;20113;-67
2022/09/18 05:41:47;;;;;;;0.88;0.88;;;;;;;;;;4974610;28;20054;-67
2022/09/18 05:44:12;;;;;;;1.45;0.85;;;;;;;;;;4972266;28;20031;-67
2022/09/18 05:46:37;;;;;;;2.22;1.08;;;;;;;;;;4972633;28;20105;-67
2022/09/18 05:49:05;;;;;;;1.10;1.00;;;;;;;;;;4971424;28;20049;-68
2022/09/18 05:51:30;;;;;;;2.47;0.80;;;;;;;;;;4973556;28;20031;-68
2022/09/18 05:53:55;;;;;;;2.05;1.05;;;;;;;;;;4973841;28;20580;-68
2022/09/18 05:56:20;;;;;;;5.07;1.02;;;;;;;;;;4971901;28;20072;-68
2022/09/18 05:58:46;;;;;;;3.30;0.80;;;;;;;;;;4972154;28;20110;-67
2022/09/18 06:01:13;;;;;;;1.75;0.90;;;;;;;;;;4968597;28;20548;-68
2022/09/18 06:03:38;;;;;;;3.30;1.05;;;;;;;;;;4969438;28;20053;-68
2022/09/18 06:06:03;;;;;;;1.02;0.93;;;;;;;;;;4971800;28;20030;-68
2022/09/18 06:08:29;;;;;;;3.75;1.00;;;;;;;;;;4971624;28;20448;-69
2022/09/18 06:10:54;;;;;;;3.80;1.60;;;;;;;;;;4971675;28;20201;-67
2022/09/18 06:13:19;;;;;;;3.80;1.02;;;;;;;;;;4973715;28;20033;-67
2022/09/18 06:15:46;;;;;;;0.93;0.85;;;;;;;;;;4971257;28;20354;-67
2022/09/18 06:18:13;;;;;;;3.38;1.48;;;;;;;;;;4974032;28;20031;-68
2022/09/18 06:20:38;;;;;;;1.48;0.80;;;;;;;;;;4972095;28;20478;-70
2022/09/18 06:23:03;;;;;;;4.00;1.00;;;;;;;;;;4968687;28;20153;-68
2022/09/18 06:25:29;;;;;;;1.00;1.00;;;;;;;;;;4970019;28;20058;-69
2022/09/18 06:27:58;;;;;;;2.53;0.82;;;;;;;;;;4971318;28;20072;-68
2022/09/18 06:30:28;;;;;;;4.32;1.15;;;;;;;;;;4972406;28;20610;-68
2022/09/18 06:32:53;;;;;;;1.77;1.10;;;;;;;;;;4974666;28;20092;-69
2022/09/18 06:35:19;;;;;;;2.25;1.05;;;;;;;;;;4971440;28;20022;-67
2022/09/18 06:37:44;;;;;;;1.42;1.08;;;;;;;;;;4972654;28;20092;-68
2022/09/18 06:40:09;;;;;;;1.80;1.25;;;;;;;;;;4970321;28;20025;-68
2022/09/18 06:42:35;;;;;;;1.00;0.90;;;;;;;;;;4972910;28;20182;-68
2022/09/18 06:45:00;;;;;;;3.28;1.10;;;;;;;;;;4973058;28;20112;-67
2022/09/18 06:47:25;;;;;;;1.10;1.10;;;;;;;;;;4973098;28;20065;-67
2022/09/18 06:49:50;;;;;;;2.28;0.90;;;;;;;;;;4971349;28;20042;-67
2022/09/18 06:52:16;;;;;;;3.65;1.35;;;;;;;;;;4973498;28;20058;-67
2022/09/18 06:54:41;;;;;;;1.23;1.10;;;;;;;;;;4972810;28;20701;-67
2022/09/18 06:57:07;;;;;;;5.97;1.52;;;;;;;;;;4972121;28;20022;-67
2022/09/18 06:59:32;;;;;;;2.55;0.95;;;;;;;;;;4972133;28;20496;-67
2022/09/18 07:01:57;;;;;;;0.95;0.93;;;;;;;;;;4971766;28;20031;-67
2022/09/18 07:04:22;;;;;;;2.95;1.25;;;;;;;;;;4972460;28;20607;-67
2022/09/18 07:06:48;;;;;;;2.92;0.98;;;;;;;;;;4972645;28;20031;-67
2022/09/18 07:09:13;;;;;;;1.95;1.00;;;;;;;;;;4974203;28;20088;-68
2022/09/18 07:11:38;;;;;;;1.13;1.13;;;;;;;;;;4971812;28;20038;-68
2022/09/18 07:14:05;;;;;;;3.35;0.93;;;;;;;;;;4971897;28;20609;-68
2022/09/18 07:16:30;;;;;;;0.60;0.60;;;;;;;;;;4971248;28;20027;-68
2022/09/18 07:18:55;;;;;;;2.00;1.02;;;;;;;;;;4972365;28;20487;-60
2022/09/18 07:21:20;;;;;;;1.17;0.82;;;;;;;;;;4973920;28;20389;-67
2022/09/18 07:23:46;;;;;;;1.65;0.98;;;;;;;;;;4975387;28;20493;-69
2022/09/18 07:26:11;;;;;;;0.90;0.90;;;;;;;;;;4976534;28;20089;-67
2022/09/18 07:28:36;;;;;;;3.00;0.70;;;;;;;;;;4974849;28;20030;-68
2022/09/18 07:31:04;;;;;;;1.27;1.08;;;;;;;;;;4975817;28;20069;-69
2022/09/18 07:33:31;;;;;;;0.80;0.80;;;;;;;;;;4974072;28;20047;-67
2022/09/18 07:36:04;;;;;;;2.55;0.82;;;;;;;;;;4975362;28;20370;-67
2022/09/18 07:38:29;;;;;;;1.27;0.93;;;;;;;;;;4972399;28;20034;-68
2022/09/18 07:40:54;;;;;;;1.65;1.00;;;;;;;;;;4971270;28;20014;-64
2022/09/18 07:43:20;;;;;;;0.70;0.70;;;;;;;;;;4973614;28;20366;-64
2022/09/18 07:45:45;;;;;;;2.58;0.80;;;;;;;;;;4974852;28;20645;-63
2022/09/18 07:48:11;;;;;;;0.82;0.70;;;;;;;;;;4976092;28;20030;-64
2022/09/18 07:50:36;;;;;;;0.80;0.80;;;;;;;;;;4976178;28;20026;-63
2022/09/18 07:53:04;;;;;;;1.20;1.20;;;;;;;;;;4976463;28;20456;-63
2022/09/18 07:55:29;;;;;;;0.70;0.70;;;;;;;;;;4973471;28;20514;-63
2022/09/18 07:57:59;;;;;;;1.85;0.57;;;;;;;;;;4970235;28;20065;-64
2022/09/18 08:00:24;;;;;;;1.48;0.60;;;;;;;;;;4973575;28;20062;-64
2022/09/18 08:02:50;;;;;;;0.60;0.60;;;;;;;;;;4974022;28;20047;-62
2022/09/18 08:05:15;;;;;;;0.63;0.60;;;;;;;;;;4974929;28;20033;-60
2022/09/18 08:07:40;;;;;;;0.68;0.68;;;;;;;;;;5005510;28;20057;-63
2022/09/18 08:10:06;;;;;;;0.50;0.50;;;;;;;;;;4974123;28;20030;-64
2022/09/18 08:12:31;;;;;;;0.60;0.60;;;;;;;;;;4973647;28;20524;-64
2022/09/18 08:14:57;;;;;;;0.77;0.68;;;;;;;;;;4974652;28;20453;-64
2022/09/18 08:17:23;;;;;;;2.55;0.70;;;;;;;;;;4971784;28;20026;-64
2022/09/18 08:19:48;;;;;;;0.90;0.70;;;;;;;;;;4970062;28;20491;-63
2022/09/18 08:22:13;;;;;;;2.60;0.77;;;;;;;;;;4972269;28;20380;-62
2022/09/18 08:24:38;;;;;;;0.60;0.60;;;;;;;;;;4974490;28;20035;-63
2022/09/18 08:27:03;;;;;;;1.30;0.90;;;;;;;;;;4969297;28;20033;-64
2022/09/18 08:29:29;;;;;;;1.13;1.00;;;;;;;;;;4969705;28;20030;-63
2022/09/18 08:31:54;;;;;;;2.20;1.05;;;;;;;;;;4975086;28;20129;-63
2022/09/18 08:34:20;;;;;;;0.68;0.68;;;;;;;;;;4975825;28;20694;-64
2022/09/18 08:36:45;;;;;;;1.33;0.70;;;;;;;;;;4971986;28;20077;-63
2022/09/18 08:39:10;;;;;;;0.68;0.68;;;;;;;;;;4975281;28;20037;-63
2022/09/18 08:41:41;;;;;;;0.65;0.60;;;;;;;;;;4974454;28;20035;-64
2022/09/18 08:44:18;;;;;;;0.95;0.60;;;;;;;;;;4978091;28;20457;-64
2022/09/18 08:46:47;;;;;;;0.73;0.70;;;;;;;;;;4972155;28;20533;-62
2022/09/18 08:49:24;;;;;;;0.68;0.68;;;;;;;;;;4975359;28;20058;-62
2022/09/18 08:51:52;;;;;;;0.73;0.73;;;;;;;;;;4972765;28;20021;-63
2022/09/18 08:54:18;;;;;;;0.65;0.65;;;;;;;;;;4973816;28;20041;-63
2022/09/18 08:56:43;;;;;;;0.63;0.63;;;;;;;;;;4971515;28;20031;-61
2022/09/18 08:59:18;;;;;;;0.70;0.70;;;;;;;;;;4974170;28;20114;-62
2022/09/18 09:01:48;;;;;;;0.60;0.60;;;;;;;;;;4974012;28;20042;-61
2022/09/18 09:04:19;;;;;;;0.52;0.52;;;;;;;;;;4972835;28;20050;-62
2022/09/18 09:06:47;;;;;;;1.17;0.80;;;;;;;;;;4970638;28;20401;-61
2022/09/18 09:09:21;;;;;;;0.75;0.75;;;;;;;;;;4973756;28;20860;-63
2022/09/18 09:12:08;;;;;;;1.27;0.60;;;;;;;;;;4970912;28;20014;-64
2022/09/18 09:14:34;;;;;;;0.60;0.60;;;;;;;;;;4966196;28;20038;-62
2022/09/18 09:17:03;;;;;;;0.70;0.70;;;;;;;;;;4970177;28;20019;-61
2022/09/18 09:19:42;;;;;;;3.95;0.73;;;;;;;;;;4971646;28;20076;-60
2022/09/18 09:22:17;;;;;;;0.90;0.90;;;;;;;;;;4968216;28;20105;-62
2022/09/18 09:25:01;;;;;;;0.73;0.73;;;;;;;;;;4972070;28;20030;-62
2022/09/18 09:27:42;;;;;;;0.77;0.63;;;;;;;;;;4973770;28;20025;-61
2022/09/18 09:30:12;;;;;;;0.70;0.70;;;;;;;;;;4973933;28;20065;-63
2022/09/18 09:33:00;;;;;;;4.03;1.15;;;;;;;;;;4971839;28;20035;-61
2022/09/18 09:35:35;;;;;;;2.42;0.70;;;;;;;;;;4971453;28;20092;-61
2022/09/18 09:38:03;;;;;;;0.73;0.70;;;;;;;;;;4970521;28;20018;-61
2022/09/18 09:40:33;;;;;;;0.65;0.50;;;;;;;;;;4972199;28;20030;-63
2022/09/18 09:43:04;;;;;;;1.27;0.80;;;;;;;;;;4971489;28;20049;-62
2022/09/18 09:45:37;;;;;;;1.45;0.80;;;;;;;;;;4971586;28;20026;-64
2022/09/18 09:48:03;;;;;;;0.80;0.80;;;;;;;;;;4971411;28;20038;-63
2022/09/18 09:50:47;;;;;;;4.57;2.60;;;;;;;;;;4973701;28;20026;-64
2022/09/18 09:53:12;;;;;;;3.28;1.15;;;;;;;;;;4971719;28;20564;-64
2022/09/18 09:55:45;;;;;;;2.00;0.90;;;;;;;;;;4973707;28;20035;-64
2022/09/18 09:58:39;;;;;;;1.77;1.02;;;;;;;;;;4973448;28;20026;-61
2022/09/18 10:01:23;;;;;;;1.35;1.00;;;;;;;;;;4969032;28;20145;-66
2022/09/18 10:04:07;;;;;;;1.63;1.10;;;;;;;;;;4969866;28;20050;-66
2022/09/18 10:06:52;;;;;;;0.90;0.90;;;;;;;;;;4972611;28;20027;-68
2022/09/18 10:09:17;;;;;;;1.60;1.50;;;;;;;;;;4972511;28;20026;-69
2022/09/18 10:11:47;;;;;;;1.00;0.90;;;;;;;;;;4972528;28;20038;-67
2022/09/18 10:14:16;;;;;;;1.52;0.77;;;;;;;;;;4972037;28;20686;-66
2022/09/18 10:16:44;;;;;;;1.17;1.00;;;;;;;;;;4972475;28;20026;-68
2022/09/18 10:19:12;;;;;;;2.28;1.30;;;;;;;;;;4969870;28;20023;-68
2022/09/18 10:21:40;;;;;;;1.23;1.13;;;;;;;;;;4973895;28;20034;-70
2022/09/18 10:24:23;;;;;;;2.05;1.58;;;;;;;;;;4967463;28;20050;-63
2022/09/18 10:26:50;;;;;;;8.07;4.15;;;;;;;;;;4971723;28;20325;-60
2022/09/18 10:29:16;;;;;;;140.70;122.07;;;;;;;;;;4968227;28;20027;-61
2022/09/18 10:31:49;;;;;;;39.35;31.23;;;;;;;;;;4962328;28;20069;-60
2022/09/18 10:34:29;;;;;;;238.57;215.43;;;;;;;;;;4977496;28;20579;-60
2022/09/18 10:36:55;;;;;;;321.38;249.70;;;;;;;;;;4968021;28;20054;-61
2022/09/18 10:39:31;;;;;;;181.80;163.95;;;;;;;;;;4971533;28;20351;-59
2022/09/18 10:41:57;;;;;;;53.17;48.63;;;;;;;;;;4971066;28;20026;-62
2022/09/18 10:44:29;;;;;;;280.52;246.23;;;;;;;;;;4972768;28;20031;-62
2022/09/18 10:47:01;;;;;;;4.68;2.67;;;;;;;;;;4973493;28;20026;-63
2022/09/18 10:49:34;;;;;;;11.65;6.53;;;;;;;;;;4972330;28;20050;-63
2022/09/18 10:52:14;;;;;;;9.40;7.18;;;;;;;;;;4975192;28;20097;-63
2022/09/18 10:54:39;;;;;;;4.65;2.80;;;;;;;;;;4976006;28;20037;-62
2022/09/18 10:57:23;;;;;;;361.70;259.88;;;;;;;;;;4976377;28;20027;-62
2022/09/18 10:59:49;;;;;;;13.52;6.18;;;;;;;;;;4975131;28;20161;-63
2022/09/18 11:02:17;;;;;;;282.95;258.75;;;;;;;;;;4975725;28;20484;-63
2022/09/18 11:04:46;;;;;;;280.20;255.80;;;;;;;;;;4975166;28;20117;-65
2022/09/18 11:07:11;;;;;;;38.75;35.47;;;;;;;;;;4975556;28;20078;-63
2022/09/18 11:09:38;;;;;;;36.20;33.28;;;;;;;;;;4974868;28;20448;-62
2022/09/18 11:12:04;;;;;;;54.55;50.55;;;;;;;;;;4975385;28;20062;-60
2022/09/18 11:14:59;;;;;;;15.98;6.28;;;;;;;;;;4971480;28;20158;-62
2022/09/18 11:17:26;;;;;;;9.98;4.45;;;;;;;;;;4976310;28;20105;-62
2022/09/18 11:19:53;;;;;;;16.13;9.25;;;;;;;;;;4971072;28;20062;-60
2022/09/18 11:22:30;;;;;;;11.68;8.18;;;;;;;;;;4973873;28;20028;-64
2022/09/18 11:25:06;;;;;;;14.18;5.35;;;;;;;;;;4971233;28;20056;-61
2022/09/18 11:27:43;;;;;;;12.02;4.28;;;;;;;;;;4973606;28;20409;-60
2022/09/18 11:30:15;;;;;;;17.75;7.97;;;;;;;;;;4971306;28;20026;-62
2022/09/18 11:32:43;;;;;;;8.07;3.60;;;;;;;;;;4971622;28;20431;-61
2022/09/18 11:35:14;;;;;;;5.05;3.60;;;;;;;;;;4972638;28;20546;-63
2022/09/18 11:37:45;;;;;;;1.88;1.75;;;;;;;;;;4971417;28;20061;-62
2022/09/18 11:40:18;;;;;;;1.55;1.42;;;;;;;;;;4974335;28;20603;-64
2022/09/18 11:42:45;;;;;;;1.50;1.10;;;;;;;;;;4975848;28;20034;-64
2022/09/18 11:45:19;;;;;;;1.60;1.50;;;;;;;;;;4974675;28;20073;-64
2022/09/18 11:47:56;;;;;;;2.25;2.05;;;;;;;;;;4976941;28;20154;-65
2022/09/18 11:50:25;;;;;;;1.85;1.75;;;;;;;;;;4974282;28;20031;-63
2022/09/18 11:52:55;;;;;;;5.10;2.70;;;;;;;;;;4976098;28;20113;-65
2022/09/18 11:55:25;;;;;;;2.08;1.42;;;;;;;;;;4975643;28;20085;-64
2022/09/18 11:58:00;;;;;;;1.88;1.73;;;;;;;;;;4975731;28;20022;-64
2022/09/18 12:00:27;;;;;;;1.75;1.65;;;;;;;;;;4974588;28;20035;-63
2022/09/18 12:03:18;;;;;;;3.78;2.60;;;;;;;;;;4969606;28;20140;-64
2022/09/18 12:06:02;;;;;;;8.18;3.65;;;;;;;;;;4970594;28;20031;-65
2022/09/18 12:08:33;;;;;;;9.85;3.95;;;;;;;;;;4975859;28;20053;-65
2022/09/18 12:11:11;;;;;;;60.33;57.17;;;;;;;;;;4971954;28;20473;-66
2022/09/18 12:14:02;;;;;;;291.00;269.23;;;;;;;;;;4975282;28;20117;-66
2022/09/18 12:16:33;;;;;;;126.30;119.80;;;;;;;;;;4992617;28;20113;-67
2022/09/18 12:19:01;;;;;;;47.47;44.30;;;;;;;;;;4992477;28;20044;-65
2022/09/18 12:21:35;;;;;;;10.95;4.70;;;;;;;;;;4990698;28;20042;-65
2022/09/18 12:24:00;;;;;;;15.48;8.73;;;;;;;;;;4992261;28;20125;-65
2022/09/18 12:26:37;;;;;;;6.40;3.15;;;;;;;;;;4991912;28;20037;-66
2022/09/18 12:29:11;;;;;;;16.77;6.63;;;;;;;;;;4991402;28;20022;-66
2022/09/18 12:31:50;;;;;;;7.22;3.33;;;;;;;;;;4989729;28;20108;-65
2022/09/18 12:34:33;;;;;;;7.07;3.08;;;;;;;;;;4993365;28;20236;-66
2022/09/18 12:37:07;;;;;;;8.73;3.65;;;;;;;;;;4991908;28;20393;-65
2022/09/18 12:39:32;;;;;;;16.20;14.67;;;;;;;;;;4991282;28;20041;-67
2022/09/18 12:42:16;;;;;;;10.35;4.53;;;;;;;;;;4990111;28;20023;-66
2022/09/18 12:44:50;;;;;;;15.60;6.95;;;;;;;;;;4986885;28;20045;-65
2022/09/18 12:47:15;;;;;;;9.43;3.85;;;;;;;;;;4992667;28;20145;-66
2022/09/18 12:49:55;;;;;;;8.52;3.65;;;;;;;;;;4990552;28;20091;-65
2022/09/18 12:52:27;;;;;;;8.02;3.28;;;;;;;;;;4976562;28;20109;-66
2022/09/18 12:55:16;;;;;;;7.53;3.10;;;;;;;;;;4974251;28;20023;-65
2022/09/18 12:57:47;;;;;;;7.40;3.05;;;;;;;;;;4972007;28;20043;-65
2022/09/18 13:00:13;;;;;;;9.82;4.68;;;;;;;;;;4974718;28;20026;-66
2022/09/18 13:02:52;;;;;;;14.40;5.47;;;;;;;;;;4971714;28;20091;-65
2022/09/18 13:05:21;;;;;;;22.85;19.52;;;;;;;;;;4969382;28;20465;-66
2022/09/18 13:07:56;;;;;;;9.05;4.13;;;;;;;;;;4971979;28;20734;-65
2022/09/18 13:10:24;;;;;;;39.40;35.92;;;;;;;;;;4969997;28;20030;-65
2022/09/18 13:12:52;;;;;;;11.77;9.32;;;;;;;;;;4973010;28;20444;-65
2022/09/18 13:15:40;;;;;;;11.57;4.50;;;;;;;;;;4973945;28;20034;-67
2022/09/18 13:18:08;;;;;;;316.13;294.17;;;;;;;;;;4972929;28;20026;-67
2022/09/18 13:20:37;;;;;;;17.70;8.90;;;;;;;;;;4973128;28;20133;-65
2022/09/18 13:23:03;;;;;;;9.95;8.05;;;;;;;;;;4974071;28;20789;-67
2022/09/18 13:25:31;;;;;;;17.95;16.20;;;;;;;;;;4972882;28;20144;-67
2022/09/18 13:27:58;;;;;;;84.40;79.32;;;;;;;;;;4973806;28;20050;-65
2022/09/18 13:30:25;;;;;;;11.85;5.75;;;;;;;;;;4973261;28;20047;-66
2022/09/18 13:32:51;;;;;;;10.43;4.50;;;;;;;;;;4973536;28;20030;-65
2022/09/18 13:35:19;;;;;;;12.98;9.32;;;;;;;;;;4972147;28;20014;-64
2022/09/18 13:37:44;;;;;;;9.40;4.15;;;;;;;;;;4973845;28;20027;-62
2022/09/18 13:40:28;;;;;;;16.08;13.48;;;;;;;;;;4974349;28;20049;-67
2022/09/18 13:42:54;;;;;;;20.70;19.10;;;;;;;;;;4974449;28;20125;-67
2022/09/18 13:45:24;;;;;;;9.75;4.65;;;;;;;;;;4973966;28;20137;-66
2022/09/18 13:48:01;;;;;;;10.70;4.45;;;;;;;;;;4974683;28;20522;-68
2022/09/18 13:50:27;;;;;;;11.10;5.18;;;;;;;;;;4974648;28;20125;-69
2022/09/18 13:52:57;;;;;;;19.63;17.70;;;;;;;;;;4974409;28;20031;-68
2022/09/18 13:55:24;;;;;;;11.25;5.13;;;;;;;;;;4972687;28;20113;-68
2022/09/18 13:57:51;;;;;;;16.65;6.25;;;;;;;;;;4973808;28;20122;-66
2022/09/18 14:00:19;;;;;;;6.97;3.00;;;;;;;;;;4973708;28;20421;-67
2022/09/18 14:02:48;;;;;;;6.80;3.65;;;;;;;;;;4973171;28;20062;-66
2022/09/18 14:05:33;;;;;;;9.68;3.42;;;;;;;;;;4974839;28;20107;-66
2022/09/18 14:08:17;;;;;;;6.25;2.78;;;;;;;;;;4972921;28;20027;-66
2022/09/18 14:10:42;;;;;;;12.85;5.15;;;;;;;;;;4972533;28;20097;-67
2022/09/18 14:13:21;;;;;;;3.15;2.33;;;;;;;;;;4974741;28;20035;-67
2022/09/18 14:15:52;;;;;;;3.78;2.85;;;;;;;;;;4971526;28;20069;-65
2022/09/18 14:18:23;;;;;;;1.58;1.48;;;;;;;;;;4974072;28;20019;-69
2022/09/18 14:20:50;;;;;;;2.88;2.50;;;;;;;;;;4973449;28;20073;-68
2022/09/18 14:23:34;;;;;;;3.05;2.58;;;;;;;;;;4973766;28;20035;-67
2022/09/18 14:26:00;;;;;;;1.30;1.20;;;;;;;;;;4976918;28;20026;-61
2022/09/18 14:28:26;;;;;;;1.48;1.38;;;;;;;;;;4977725;28;20026;-67
2022/09/18 14:31:12;;;;;;;1.60;1.50;;;;;;;;;;4976325;28;20054;-67
2022/09/18 14:33:40;;;;;;;2.03;1.85;;;;;;;;;;4977469;28;20357;-66
2022/09/18 14:36:07;;;;;;;0.95;0.95;;;;;;;;;;4976756;28;20118;-68
2022/09/18 14:38:32;;;;;;;0.95;0.95;;;;;;;;;;4976778;28;20057;-68
2022/09/18 14:41:06;;;;;;;0.77;0.77;;;;;;;;;;4976896;28;20081;-68
2022/09/18 14:43:31;;;;;;;0.80;0.80;;;;;;;;;;4976802;28;20023;-67
2022/09/18 14:45:56;;;;;;;1.00;1.00;;;;;;;;;;4975413;28;20097;-67
2022/09/18 14:48:34;;;;;;;0.60;0.60;;;;;;;;;;4977394;28;20055;-68
2022/09/18 14:51:04;;;;;;;0.75;0.75;;;;;;;;;;4976768;28;20484;-67